createdAt,value
2018-12-25T00:00:03.630Z,5.95
2018-12-25T00:01:03.392Z,6.39
2018-12-25T00:02:03.523Z,6.39
2018-12-25T00:03:02.800Z,5.54
2018-12-25T00:04:03.040Z,6.18
2018-12-25T00:05:02.879Z,6.44
2018-12-25T00:06:03.336Z,6.22
2018-12-25T00:07:03.489Z,6.91
2018-12-25T00:08:03.169Z,6.91
2018-12-25T00:09:03.226Z,5.93
2018-12-25T00:10:03.132Z,6.96
2018-12-25T00:11:03.043Z,6.39
2018-12-25T00:12:02.986Z,6.36
2018-12-25T00:13:03.251Z,7.06
2018-12-25T00:14:03.539Z,5.69
2018-12-25T00:15:03.648Z,6.37
2018-12-25T00:16:07.413Z,7.4
2018-12-25T00:17:03.071Z,6.01
2018-12-25T00:18:03.510Z,6.09
2018-12-25T00:19:06.557Z,6.29
2018-12-25T00:20:03.336Z,6.06
2018-12-25T00:22:03.218Z,6.15
2018-12-25T00:23:03.655Z,6.1
2018-12-25T00:24:04.000Z,7.15
2018-12-25T00:25:03.703Z,5.87
2018-12-25T00:26:03.184Z,6.43
2018-12-25T00:27:03.039Z,7.19
2018-12-25T00:28:03.061Z,6.84
2018-12-25T00:29:02.927Z,6.51
2018-12-25T00:30:02.917Z,6.99
2018-12-25T00:31:03.049Z,6.42
2018-12-25T00:32:02.901Z,7.58
2018-12-25T00:33:02.776Z,7.39
2018-12-25T00:34:03.115Z,6.48
2018-12-25T00:35:03.790Z,6.65
2018-12-25T00:36:03.284Z,6.65
2018-12-25T00:37:03.070Z,7.3
2018-12-25T00:38:03.046Z,7.3
2018-12-25T00:39:03.441Z,6.39
2018-12-25T00:40:03.882Z,7.06
2018-12-25T00:41:03.500Z,7.34
2018-12-25T00:42:02.663Z,7.58
2018-12-25T00:43:02.762Z,7.08
2018-12-25T00:44:03.183Z,6.72
2018-12-25T00:45:03.434Z,7.64
2018-12-25T00:46:03.793Z,7.54
2018-12-25T00:47:03.507Z,7.75
2018-12-25T00:48:02.897Z,7.94
2018-12-25T00:49:02.754Z,7.43
2018-12-25T00:50:03.684Z,6.91
2018-12-25T00:51:03.121Z,7.69
2018-12-25T00:52:03.282Z,7.69
2018-12-25T00:53:03.506Z,8.67
2018-12-25T00:54:03.492Z,7.92
2018-12-25T00:55:03.251Z,7.83
2018-12-25T00:56:03.292Z,8.15
2018-12-25T00:57:03.408Z,8.97
2018-12-25T00:58:02.868Z,8.14
2018-12-25T00:59:03.686Z,8.18
2018-12-25T01:00:03.175Z,8.42
2018-12-25T01:01:03.338Z,8.49
2018-12-25T01:02:03.582Z,8.1
2018-12-25T01:03:02.612Z,8.29
2018-12-25T01:04:03.462Z,8.78
2018-12-25T01:05:03.333Z,7.86
2018-12-25T01:06:02.938Z,7.98
2018-12-25T01:07:04.541Z,8.27
2018-12-25T01:08:03.070Z,8.12
2018-12-25T01:09:02.765Z,8.08
2018-12-25T01:10:03.670Z,8.17
2018-12-25T01:11:03.408Z,8.77
2018-12-25T01:12:03.203Z,8.66
2018-12-25T01:13:03.202Z,7.71
2018-12-25T01:14:03.656Z,8.27
2018-12-25T01:15:02.932Z,8.24
2018-12-25T01:16:03.812Z,8.45
2018-12-25T01:17:03.031Z,8.05
2018-12-25T01:18:03.646Z,7.97
2018-12-25T01:19:03.424Z,7.72
2018-12-25T01:20:03.425Z,7.56
2018-12-25T01:21:02.950Z,7.89
2018-12-25T01:22:03.377Z,7.68
2018-12-25T01:23:03.261Z,7.27
2018-12-25T01:24:03.665Z,7.14
2018-12-25T01:25:03.113Z,7.14
2018-12-25T01:26:03.046Z,8.15
2018-12-25T01:27:03.010Z,7.26
2018-12-25T01:28:03.432Z,7.26
2018-12-25T01:29:03.040Z,7.26
2018-12-25T01:30:03.623Z,0
2018-12-25T01:31:02.900Z,7.59
2018-12-25T01:32:03.196Z,6.32
2018-12-25T01:33:03.433Z,6.32
2018-12-25T01:34:03.356Z,7.05
2018-12-25T01:35:03.295Z,7.05
2018-12-25T01:36:03.186Z,7.35
2018-12-25T01:37:02.772Z,6.87
2018-12-25T01:38:03.996Z,7.86
2018-12-25T01:39:02.736Z,6.62
2018-12-25T01:40:03.598Z,7.74
2018-12-25T01:41:03.196Z,6.61
2018-12-25T01:42:03.705Z,7.34
2018-12-25T01:43:03.143Z,6.65
2018-12-25T01:44:03.494Z,6
2018-12-25T01:45:03.294Z,7.08
2018-12-25T01:46:03.816Z,7.14
2018-12-25T01:47:02.948Z,7.41
2018-12-25T01:48:03.637Z,7.42
2018-12-25T01:49:03.300Z,6.69
2018-12-25T01:50:03.420Z,6.98
2018-12-25T01:51:03.001Z,7.3
2018-12-25T01:52:03.496Z,6.94
2018-12-25T01:53:03.200Z,6.98
2018-12-25T01:54:03.477Z,7.28
2018-12-25T01:55:04.126Z,6.94
2018-12-25T01:56:03.320Z,6.94
2018-12-25T01:57:02.761Z,6.67
2018-12-25T01:58:03.601Z,6.44
2018-12-25T01:59:02.778Z,6.29
2018-12-25T02:00:03.227Z,6.67
2018-12-25T02:01:02.968Z,6.39
2018-12-25T02:02:03.532Z,6.54
2018-12-25T02:03:03.654Z,6.68
2018-12-25T02:04:03.601Z,7.36
2018-12-25T02:05:03.758Z,6.42
2018-12-25T02:06:03.705Z,6.28
2018-12-25T02:07:02.982Z,6.3
2018-12-25T02:08:03.418Z,6.58
2018-12-25T02:09:03.566Z,7.34
2018-12-25T02:10:03.814Z,6.51
2018-12-25T02:11:03.122Z,6.59
2018-12-25T02:12:03.201Z,5.95
2018-12-25T02:13:02.929Z,7.07
2018-12-25T02:14:03.358Z,6.28
2018-12-25T02:15:03.458Z,6.32
2018-12-25T02:16:03.179Z,7.03
2018-12-25T02:17:03.132Z,7.34
2018-12-25T02:18:02.991Z,6.71
2018-12-25T02:19:02.928Z,7.21
2018-12-25T02:20:03.058Z,7.46
2018-12-25T02:21:03.258Z,7.46
2018-12-25T02:22:03.529Z,6.34
2018-12-25T02:23:03.437Z,6.34
2018-12-25T02:24:02.945Z,8
2018-12-25T02:25:03.143Z,7.24
2018-12-25T02:26:03.372Z,7.48
2018-12-25T02:27:03.638Z,6.28
2018-12-25T02:28:02.901Z,7.31
2018-12-25T02:29:02.690Z,7.45
2018-12-25T02:30:03.053Z,7.34
2018-12-25T02:31:03.113Z,6.29
2018-12-25T02:32:03.529Z,6.81
2018-12-25T02:33:03.128Z,7.71
2018-12-25T02:34:03.350Z,6.36
2018-12-25T02:35:03.747Z,7.92
2018-12-25T02:36:03.499Z,6.71
2018-12-25T02:37:03.049Z,7.05
2018-12-25T02:38:03.562Z,6.85
2018-12-25T02:39:03.325Z,7.04
2018-12-25T02:40:02.822Z,7.76
2018-12-25T02:41:03.105Z,7.96
2018-12-25T02:42:03.057Z,6.34
2018-12-25T02:43:03.161Z,7.12
2018-12-25T02:44:03.483Z,7.27
2018-12-25T02:45:03.664Z,7.49
2018-12-25T02:46:03.333Z,6.85
2018-12-25T02:47:03.217Z,7.02
2018-12-25T02:48:03.198Z,8.01
2018-12-25T02:49:02.798Z,7.22
2018-12-25T02:50:03.761Z,8.19
2018-12-25T02:51:03.728Z,7.15
2018-12-25T02:52:03.753Z,7.09
2018-12-25T02:53:03.821Z,6.65
2018-12-25T02:54:03.458Z,7.12
2018-12-25T02:55:03.059Z,7.39
2018-12-25T02:56:03.206Z,7.09
2018-12-25T02:57:03.244Z,6.96
2018-12-25T02:58:02.979Z,7.2
2018-12-25T02:59:02.892Z,7.46
2018-12-25T03:00:03.591Z,7.22
2018-12-25T03:01:03.895Z,7.41
2018-12-25T03:02:03.034Z,7.26
2018-12-25T03:03:03.706Z,7.48
2018-12-25T03:04:02.985Z,8.28
2018-12-25T03:05:02.945Z,7.11
2018-12-25T03:06:03.698Z,7.14
2018-12-25T03:07:03.346Z,8.45
2018-12-25T03:08:03.383Z,7.04
2018-12-25T03:09:03.139Z,7.04
2018-12-25T03:10:03.498Z,7.53
2018-12-25T03:11:03.341Z,7.44
2018-12-25T03:12:02.989Z,7.44
2018-12-25T03:13:03.791Z,7.32
2018-12-25T03:14:03.347Z,7.64
2018-12-25T03:15:03.241Z,7.82
2018-12-25T03:16:03.863Z,7.79
2018-12-25T03:17:02.851Z,7.56
2018-12-25T03:18:03.288Z,7.11
2018-12-25T03:19:03.238Z,7.05
2018-12-25T03:20:03.087Z,7.47
2018-12-25T03:21:03.011Z,7.68
2018-12-25T03:22:04.485Z,6.3
2018-12-25T03:23:03.285Z,7.75
2018-12-25T03:24:02.684Z,8.55
2018-12-25T03:25:02.829Z,6.95
2018-12-25T03:26:03.138Z,8.38
2018-12-25T03:27:03.284Z,7.44
2018-12-25T03:28:02.735Z,7.08
2018-12-25T03:29:03.126Z,8.21
2018-12-25T03:30:03.694Z,7.44
2018-12-25T03:31:03.637Z,6.89
2018-12-25T03:32:03.214Z,7.28
2018-12-25T03:33:02.775Z,7.91
2018-12-25T03:34:03.284Z,7.47
2018-12-25T03:35:03.649Z,7.24
2018-12-25T03:36:03.140Z,7.01
2018-12-25T03:37:03.055Z,7.37
2018-12-25T03:38:03.096Z,7.58
2018-12-25T03:39:03.128Z,8.22
2018-12-25T03:40:03.046Z,8.2
2018-12-25T03:41:03.397Z,7.64
2018-12-25T03:42:03.352Z,7.13
2018-12-25T03:43:03.193Z,7.76
2018-12-25T03:44:03.486Z,7.48
2018-12-25T03:45:03.157Z,8.89
2018-12-25T03:46:03.323Z,7.33
2018-12-25T03:47:03.111Z,6.89
2018-12-25T03:48:03.077Z,8.45
2018-12-25T03:49:03.206Z,6.84
2018-12-25T03:50:11.137Z,7.64
2018-12-25T03:51:02.909Z,6.79
2018-12-25T03:52:03.286Z,8.35
2018-12-25T03:53:03.364Z,7.93
2018-12-25T03:54:03.024Z,7.88
2018-12-25T03:55:03.037Z,7.66
2018-12-25T03:56:03.347Z,7.66
2018-12-25T03:58:03.094Z,7.93
2018-12-25T03:59:03.067Z,7.18
2018-12-25T04:00:03.457Z,7.18
2018-12-25T04:01:03.293Z,7.12
2018-12-25T04:02:03.722Z,7.58
2018-12-25T04:03:03.334Z,8.2
2018-12-25T04:04:03.276Z,8.21
2018-12-25T04:05:03.360Z,8.68
2018-12-25T04:06:03.776Z,7.79
2018-12-25T04:07:03.622Z,7.65
2018-12-25T04:08:03.063Z,8.3
2018-12-25T04:09:03.176Z,7.18
2018-12-25T04:10:03.733Z,7.55
2018-12-25T04:11:03.576Z,7.31
2018-12-25T04:12:02.816Z,8.14
2018-12-25T04:13:03.128Z,7.06
2018-12-25T04:14:03.005Z,8.05
2018-12-25T04:15:03.200Z,7.56
2018-12-25T04:16:03.921Z,8.82
2018-12-25T04:17:03.348Z,7.34
2018-12-25T04:18:03.348Z,7.39
2018-12-25T04:19:03.141Z,8.81
2018-12-25T04:20:03.602Z,7.66
2018-12-25T04:21:03.680Z,8
2018-12-25T04:22:03.320Z,8.09
2018-12-25T04:23:03.375Z,7.59
2018-12-25T04:24:03.715Z,7.82
2018-12-25T04:25:03.065Z,8.28
2018-12-25T04:26:03.373Z,7.24
2018-12-25T04:27:03.172Z,7.24
2018-12-25T04:28:02.817Z,8.1
2018-12-25T04:29:02.925Z,7.25
2018-12-25T04:30:03.897Z,7.81
2018-12-25T04:31:03.543Z,7.34
2018-12-25T04:32:03.097Z,7.42
2018-12-25T04:33:03.507Z,7.19
2018-12-25T04:34:03.566Z,7.58
2018-12-25T04:35:02.657Z,7.41
2018-12-25T04:36:03.794Z,7.02
2018-12-25T04:37:03.271Z,6.92
2018-12-25T04:38:03.243Z,8.66
2018-12-25T04:39:03.316Z,7.44
2018-12-25T04:40:03.510Z,7.24
2018-12-25T04:41:03.180Z,6.78
2018-12-25T04:42:03.565Z,7.44
2018-12-25T04:43:02.833Z,7.44
2018-12-25T04:44:03.391Z,7.1
2018-12-25T04:45:03.392Z,8.39
2018-12-25T04:46:04.276Z,8.03
2018-12-25T04:47:03.503Z,8.04
2018-12-25T04:48:03.205Z,8.04
2018-12-25T04:49:03.524Z,7.38
2018-12-25T04:50:03.451Z,8
2018-12-25T04:51:03.416Z,9.08
2018-12-25T04:52:03.376Z,7.87
2018-12-25T04:53:03.101Z,7.99
2018-12-25T04:54:03.439Z,7.06
2018-12-25T04:55:03.895Z,7.41
2018-12-25T04:56:03.687Z,7.22
2018-12-25T04:57:03.140Z,7.8
2018-12-25T04:58:03.365Z,7.71
2018-12-25T04:59:02.823Z,6.98
2018-12-25T05:00:03.396Z,6.92
2018-12-25T05:02:03.712Z,7.41
2018-12-25T05:03:03.701Z,8.48
2018-12-25T05:04:02.771Z,7.38
2018-12-25T05:05:03.061Z,8.08
2018-12-25T05:06:02.823Z,8.08
2018-12-25T05:07:03.253Z,7.53
2018-12-25T05:08:03.238Z,7.32
2018-12-25T05:09:03.213Z,7.39
2018-12-25T05:10:03.761Z,7.1
2018-12-25T05:11:02.823Z,7.21
2018-12-25T05:12:03.381Z,7.31
2018-12-25T05:13:03.420Z,7.11
2018-12-25T05:14:03.140Z,7.51
2018-12-25T05:15:03.169Z,7.39
2018-12-25T05:16:04.444Z,0
2018-12-25T05:17:03.745Z,8.27
2018-12-25T05:18:03.047Z,7.09
2018-12-25T05:19:03.710Z,7.66
2018-12-25T05:20:03.027Z,7.45
2018-12-25T05:21:03.586Z,7.78
2018-12-25T05:22:03.246Z,7.78
2018-12-25T05:23:03.706Z,8.21
2018-12-25T05:24:02.970Z,7.96
2018-12-25T05:25:03.397Z,7.36
2018-12-25T05:26:02.990Z,7.35
2018-12-25T05:27:02.966Z,8.05
2018-12-25T05:28:03.286Z,7.75
2018-12-25T05:29:02.972Z,7.67
2018-12-25T05:30:03.284Z,8.8
2018-12-25T05:31:03.669Z,7.77
2018-12-25T05:32:03.691Z,7.34
2018-12-25T05:33:03.216Z,8.05
2018-12-25T05:34:03.478Z,7.58
2018-12-25T05:35:03.543Z,7.58
2018-12-25T05:36:03.126Z,7.54
2018-12-25T05:37:03.468Z,7.54
2018-12-25T05:38:02.992Z,7.56
2018-12-25T05:39:03.795Z,9.05
2018-12-25T05:40:03.402Z,7.54
2018-12-25T05:41:03.020Z,8.29
2018-12-25T05:42:03.702Z,7.82
2018-12-25T05:43:02.899Z,8.24
2018-12-25T05:44:02.738Z,9.62
2018-12-25T05:45:03.310Z,7.64
2018-12-25T05:46:03.115Z,7.96
2018-12-25T05:47:03.001Z,7.64
2018-12-25T05:48:03.169Z,7.51
2018-12-25T05:49:03.602Z,7.76
2018-12-25T05:50:03.629Z,7.5
2018-12-25T05:51:03.150Z,7.77
2018-12-25T05:52:03.086Z,8.81
2018-12-25T05:53:02.813Z,8.09
2018-12-25T05:54:03.589Z,8.09
2018-12-25T05:55:02.795Z,0
2018-12-25T05:56:03.105Z,0
2018-12-25T05:57:03.465Z,0
2018-12-25T05:58:03.536Z,0
2018-12-25T05:59:03.194Z,0
2018-12-25T06:00:03.985Z,0
2018-12-25T06:01:03.032Z,0
2018-12-25T06:02:03.750Z,0
2018-12-25T06:03:03.096Z,0
2018-12-25T06:04:03.283Z,0
2018-12-25T06:05:03.399Z,9.82
2018-12-25T06:06:03.092Z,8.82
2018-12-25T06:07:03.442Z,8.15
2018-12-25T06:08:03.245Z,8
2018-12-25T06:09:03.538Z,8.78
2018-12-25T06:10:03.278Z,8.6
2018-12-25T06:11:02.870Z,8.6
2018-12-25T06:12:03.458Z,8.54
2018-12-25T06:13:03.520Z,8.09
2018-12-25T06:14:03.142Z,8.33
2018-12-25T06:15:03.746Z,8.05
2018-12-25T06:16:03.251Z,8.72
2018-12-25T06:17:03.552Z,8.85
2018-12-25T06:18:03.325Z,9.23
2018-12-25T06:19:03.750Z,9.48
2018-12-25T06:20:03.299Z,10.43
2018-12-25T06:21:03.017Z,10.31
2018-12-25T06:22:03.550Z,8.75
2018-12-25T06:23:02.851Z,8.59
2018-12-25T06:24:02.947Z,9.62
2018-12-25T06:25:03.356Z,8.81
2018-12-25T06:26:03.130Z,9.08
2018-12-25T06:27:03.295Z,8.81
2018-12-25T06:28:03.184Z,8.75
2018-12-25T06:29:02.802Z,8.59
2018-12-25T06:30:02.784Z,8.86
2018-12-25T06:31:03.258Z,8.72
2018-12-25T06:32:03.543Z,9.49
2018-12-25T06:33:03.117Z,9.59
2018-12-25T06:34:02.947Z,9.93
2018-12-25T06:35:02.975Z,8.85
2018-12-25T06:36:02.979Z,9.67
2018-12-25T06:37:03.600Z,10.26
2018-12-25T06:38:02.924Z,9.32
2018-12-25T06:39:03.947Z,9.73
2018-12-25T06:40:02.239Z,9.03
2018-12-25T06:41:02.771Z,10.42
2018-12-25T06:42:03.546Z,9.27
2018-12-25T06:43:03.394Z,9.37
2018-12-25T06:44:03.067Z,9.22
2018-12-25T06:45:03.240Z,9.11
2018-12-25T06:46:03.095Z,9.24
2018-12-25T06:47:03.582Z,9.64
2018-12-25T06:48:03.067Z,8.81
2018-12-25T06:49:02.865Z,10
2018-12-25T06:50:03.532Z,9.18
2018-12-25T06:51:04.331Z,9.78
2018-12-25T06:52:02.940Z,10.43
2018-12-25T06:53:03.269Z,9.06
2018-12-25T06:54:02.946Z,9.77
2018-12-25T06:55:03.423Z,9.09
2018-12-25T06:56:03.590Z,9.21
2018-12-25T06:57:03.505Z,9.51
2018-12-25T06:58:03.236Z,9.78
2018-12-25T06:59:03.206Z,9.94
2018-12-25T07:00:02.964Z,9.94
2018-12-25T07:01:03.202Z,9.1
2018-12-25T07:02:03.266Z,10.46
2018-12-25T07:03:03.472Z,10.46
2018-12-25T07:04:02.943Z,10.08
2018-12-25T07:05:03.420Z,11.07
2018-12-25T07:06:03.532Z,10.14
2018-12-25T07:07:03.690Z,10.66
2018-12-25T07:08:03.556Z,10.68
2018-12-25T07:09:03.078Z,10.85
2018-12-25T07:10:03.277Z,10.28
2018-12-25T07:11:03.323Z,11.06
2018-12-25T07:12:03.615Z,11.06
2018-12-25T07:13:03.214Z,10.31
2018-12-25T07:14:03.377Z,11.4
2018-12-25T07:15:02.914Z,10.76
2018-12-25T07:16:03.575Z,9.24
2018-12-25T07:17:03.098Z,9.42
2018-12-25T07:18:03.466Z,10.66
2018-12-25T07:19:03.016Z,10.21
2018-12-25T07:20:03.352Z,10.82
2018-12-25T07:21:02.795Z,10.05
2018-12-25T07:22:03.151Z,10.79
2018-12-25T07:23:03.417Z,10.53
2018-12-25T07:24:03.326Z,9.69
2018-12-25T07:25:03.020Z,10.99
2018-12-25T07:26:03.524Z,9.74
2018-12-25T07:27:03.053Z,10.62
2018-12-25T07:28:03.307Z,9.55
2018-12-25T07:29:02.949Z,9.95
2018-12-25T07:30:03.559Z,9.71
2018-12-25T07:31:03.140Z,11
2018-12-25T07:32:03.667Z,10.51
2018-12-25T07:33:02.955Z,10.51
2018-12-25T07:34:02.851Z,10.02
2018-12-25T07:35:03.853Z,10.69
2018-12-25T07:36:03.341Z,10.92
2018-12-25T07:37:03.463Z,10.54
2018-12-25T07:38:03.463Z,11.25
2018-12-25T07:39:02.972Z,11.37
2018-12-25T07:40:02.894Z,10.99
2018-12-25T07:41:03.778Z,10.69
2018-12-25T07:42:02.793Z,10.65
2018-12-25T07:43:03.352Z,11.11
2018-12-25T07:44:03.074Z,11.07
2018-12-25T07:45:03.679Z,11.93
2018-12-25T07:46:03.137Z,11
2018-12-25T07:47:02.804Z,10.85
2018-12-25T07:48:03.607Z,11.32
2018-12-25T07:49:02.907Z,11.32
2018-12-25T07:50:02.834Z,10.78
2018-12-25T07:51:03.470Z,11.42
2018-12-25T07:52:03.515Z,10.99
2018-12-25T07:53:03.498Z,10.72
2018-12-25T07:54:03.082Z,10.76
2018-12-25T07:55:03.020Z,10.46
2018-12-25T07:56:03.176Z,10.56
2018-12-25T07:57:03.189Z,10.5
2018-12-25T07:58:03.409Z,10.37
2018-12-25T07:59:03.049Z,10.74
2018-12-25T08:00:03.351Z,10.6
2018-12-25T08:01:03.132Z,9.93
2018-12-25T08:02:03.362Z,8.77
2018-12-25T08:03:03.757Z,10.04
2018-12-25T08:04:03.381Z,9.65
2018-12-25T08:05:03.334Z,8.85
2018-12-25T08:06:03.261Z,9.78
2018-12-25T08:07:02.945Z,8.05
2018-12-25T08:08:02.889Z,9.74
2018-12-25T08:09:02.864Z,9.34
2018-12-25T08:10:03.718Z,10.22
2018-12-25T08:11:03.248Z,10.18
2018-12-25T08:12:03.361Z,8.72
2018-12-25T08:13:03.416Z,9.05
2018-12-25T08:14:02.955Z,9.55
2018-12-25T08:15:03.684Z,9.25
2018-12-25T08:16:03.770Z,9.56
2018-12-25T08:17:03.545Z,9.61
2018-12-25T08:18:03.361Z,9.79
2018-12-25T08:19:03.391Z,9.23
2018-12-25T08:20:03.647Z,9.51
2018-12-25T08:21:02.847Z,9.31
2018-12-25T08:22:02.833Z,9.52
2018-12-25T08:23:03.018Z,8.65
2018-12-25T08:24:03.457Z,8.68
2018-12-25T08:25:03.258Z,8.94
2018-12-25T08:26:03.149Z,8.54
2018-12-25T08:27:03.212Z,9.45
2018-12-25T08:28:03.054Z,10
2018-12-25T08:29:04.446Z,9.24
2018-12-25T08:30:03.226Z,9.32
2018-12-25T08:31:03.436Z,9.35
2018-12-25T08:32:03.163Z,8.91
2018-12-25T08:33:03.638Z,8.81
2018-12-25T08:34:03.138Z,8.92
2018-12-25T08:35:03.577Z,8.76
2018-12-25T08:36:02.791Z,8.87
2018-12-25T08:37:02.889Z,8.55
2018-12-25T08:38:03.058Z,9.27
2018-12-25T08:39:03.042Z,9.04
2018-12-25T08:40:04.155Z,9.04
2018-12-25T08:41:03.381Z,8.61
2018-12-25T08:42:02.904Z,8.46
2018-12-25T08:43:03.385Z,8.46
2018-12-25T08:44:03.071Z,8.06
2018-12-25T08:45:03.307Z,9.26
2018-12-25T08:46:03.740Z,8.43
2018-12-25T08:47:03.582Z,8.34
2018-12-25T08:48:02.913Z,8.52
2018-12-25T08:49:03.044Z,8.94
2018-12-25T08:50:02.877Z,8.37
2018-12-25T08:51:03.509Z,8.88
2018-12-25T08:52:03.475Z,9.59
2018-12-25T08:53:03.410Z,9.53
2018-12-25T08:54:03.127Z,8.56
2018-12-25T08:55:03.426Z,9.34
2018-12-25T08:56:03.227Z,8.74
2018-12-25T08:57:03.791Z,8.04
2018-12-25T08:58:03.016Z,9.52
2018-12-25T08:59:02.989Z,8.31
2018-12-25T09:00:03.557Z,7.61
2018-12-25T09:01:03.053Z,8.57
2018-12-25T09:02:03.015Z,8.92
2018-12-25T09:03:03.309Z,8.91
2018-12-25T09:04:03.714Z,8.36
2018-12-25T09:05:02.803Z,8.32
2018-12-25T09:06:03.831Z,7.92
2018-12-25T09:07:04.565Z,8.72
2018-12-25T09:08:02.929Z,9.18
2018-12-25T09:09:03.363Z,8.59
2018-12-25T09:10:03.767Z,9.16
2018-12-25T09:11:02.907Z,10.17
2018-12-25T09:12:02.779Z,8.77
2018-12-25T09:13:04.912Z,8.86
2018-12-25T09:14:03.795Z,9.13
2018-12-25T09:15:03.172Z,8.52
2018-12-25T09:16:03.317Z,7.49
2018-12-25T09:17:03.128Z,8.6
2018-12-25T09:18:03.254Z,8.19
2018-12-25T09:19:03.678Z,9.22
2018-12-25T09:20:03.658Z,8.67
2018-12-25T09:21:03.294Z,8.49
2018-12-25T09:22:03.654Z,8.28
2018-12-25T09:23:03.741Z,7.94
2018-12-25T09:24:03.228Z,7.7
2018-12-25T09:25:03.788Z,8.1
2018-12-25T09:26:03.689Z,8.7
2018-12-25T09:27:03.303Z,9.14
2018-12-25T09:28:03.356Z,7.65
2018-12-25T09:29:03.316Z,8.74
2018-12-25T09:30:03.814Z,9.14
2018-12-25T09:31:02.731Z,7.74
2018-12-25T09:32:03.191Z,7.74
2018-12-25T09:33:05.612Z,8.27
2018-12-25T09:34:03.412Z,9.18
2018-12-25T09:35:03.234Z,9.18
2018-12-25T09:36:02.857Z,7.72
2018-12-25T09:37:02.923Z,8.23
2018-12-25T09:38:02.771Z,8.07
2018-12-25T09:39:03.628Z,8.01
2018-12-25T09:40:02.846Z,7.99
2018-12-25T09:41:03.222Z,7.67
2018-12-25T09:42:02.739Z,8.38
2018-12-25T09:43:03.050Z,7.88
2018-12-25T09:44:03.623Z,8.5
2018-12-25T09:45:03.233Z,7.14
2018-12-25T09:46:02.949Z,7.78
2018-12-25T09:47:03.126Z,7.75
2018-12-25T09:48:03.290Z,7.46
2018-12-25T09:49:03.138Z,8.56
2018-12-25T09:50:03.716Z,7.46
2018-12-25T09:51:03.732Z,7.74
2018-12-25T09:52:03.544Z,8.01
2018-12-25T09:53:02.880Z,8.41
2018-12-25T09:54:02.883Z,8.74
2018-12-25T09:55:03.141Z,7.88
2018-12-25T09:56:03.539Z,8.42
2018-12-25T09:57:02.858Z,7.24
2018-12-25T09:58:03.507Z,7.81
2018-12-25T09:59:03.270Z,8.27
2018-12-25T10:00:03.237Z,7.41
2018-12-25T10:01:02.743Z,8.47
2018-12-25T10:02:03.251Z,8.04
2018-12-25T10:03:03.593Z,7.43
2018-12-25T10:04:02.781Z,7.48
2018-12-25T10:05:03.220Z,8.18
2018-12-25T10:06:03.488Z,7.82
2018-12-25T10:07:03.027Z,7.72
2018-12-25T10:08:03.793Z,7.62
2018-12-25T10:09:03.464Z,7.48
2018-12-25T10:10:02.993Z,7.47
2018-12-25T10:11:03.598Z,8.06
2018-12-25T10:12:02.992Z,8.21
2018-12-25T10:13:03.579Z,8.04
2018-12-25T10:14:02.891Z,7.62
2018-12-25T10:15:03.788Z,6.56
2018-12-25T10:16:02.752Z,7.25
2018-12-25T10:17:03.341Z,7.46
2018-12-25T10:18:02.716Z,7.67
2018-12-25T10:19:02.828Z,8.04
2018-12-25T10:20:03.152Z,8.04
2018-12-25T10:21:03.059Z,7.74
2018-12-25T10:22:05.344Z,8.25
2018-12-25T10:23:03.099Z,7.52
2018-12-25T10:24:03.575Z,7.64
2018-12-25T10:25:03.385Z,7.62
2018-12-25T10:26:03.734Z,7.54
2018-12-25T10:27:03.209Z,7.89
2018-12-25T10:28:03.478Z,7.24
2018-12-25T10:29:02.761Z,7.57
2018-12-25T10:30:02.945Z,7.91
2018-12-25T10:31:03.132Z,7.72
2018-12-25T10:32:04.850Z,8.06
2018-12-25T10:33:03.460Z,8.52
2018-12-25T10:34:03.358Z,8.01
2018-12-25T10:35:02.949Z,7.51
2018-12-25T10:36:03.458Z,7.76
2018-12-25T10:37:02.723Z,7.54
2018-12-25T10:38:03.126Z,8.29
2018-12-25T10:39:03.064Z,7.95
2018-12-25T10:40:06.609Z,9.35
2018-12-25T10:41:03.071Z,7.35
2018-12-25T10:42:04.021Z,7.94
2018-12-25T10:43:03.254Z,8.19
2018-12-25T10:44:03.179Z,8.54
2018-12-25T10:45:02.726Z,7.42
2018-12-25T10:46:03.641Z,8.38
2018-12-25T10:47:02.638Z,7.94
2018-12-25T10:48:03.146Z,7.63
2018-12-25T10:49:02.934Z,7.07
2018-12-25T10:50:03.365Z,7.2
2018-12-25T10:51:02.791Z,6.69
2018-12-25T10:52:12.015Z,7.8
2018-12-25T10:53:02.785Z,6.21
2018-12-25T10:54:03.044Z,6.78
2018-12-25T10:55:03.704Z,6.98
2018-12-25T10:56:02.919Z,6.84
2018-12-25T10:57:04.063Z,6.21
2018-12-25T10:58:04.718Z,6.82
2018-12-25T10:59:03.778Z,6.51
2018-12-25T11:00:03.375Z,6.26
2018-12-25T11:01:03.167Z,6.52
2018-12-25T11:02:03.820Z,6.41
2018-12-25T11:03:02.844Z,5.82
2018-12-25T11:04:02.925Z,7.26
2018-12-25T11:05:02.913Z,6.88
2018-12-25T11:06:04.315Z,6.55
2018-12-25T11:07:03.067Z,6.27
2018-12-25T11:08:03.466Z,5.74
2018-12-25T11:09:03.704Z,6.51
2018-12-25T11:10:03.729Z,6.51
2018-12-25T11:11:03.307Z,6.15
2018-12-25T11:12:03.438Z,6.5
2018-12-25T11:13:03.520Z,6.5
2018-12-25T11:14:03.515Z,6.04
2018-12-25T11:15:02.933Z,6.04
2018-12-25T11:16:03.367Z,6.65
2018-12-25T11:17:03.107Z,5.41
2018-12-25T11:18:03.145Z,7.26
2018-12-25T11:19:03.102Z,6.04
2018-12-25T11:20:11.818Z,5.55
2018-12-25T11:21:03.179Z,5.86
2018-12-25T11:22:06.042Z,6.49
2018-12-25T11:23:03.035Z,6.38
2018-12-25T11:24:03.155Z,6.05
2018-12-25T11:25:03.584Z,6.28
2018-12-25T11:26:03.214Z,6.37
2018-12-25T11:27:03.269Z,5.89
2018-12-25T11:28:02.821Z,5.78
2018-12-25T11:29:03.123Z,6.06
2018-12-25T11:30:03.203Z,5.8
2018-12-25T11:31:03.214Z,6.01
2018-12-25T11:32:02.985Z,5.58
2018-12-25T11:33:02.980Z,5.78
2018-12-25T11:34:02.907Z,4.91
2018-12-25T11:35:03.645Z,5.95
2018-12-25T11:36:02.822Z,4.95
2018-12-25T11:37:03.428Z,5.38
2018-12-25T11:38:03.179Z,5.45
2018-12-25T11:39:03.421Z,5.33
2018-12-25T11:40:03.781Z,5.85
2018-12-25T11:41:03.218Z,5.28
2018-12-25T11:42:03.163Z,5.55
2018-12-25T11:43:02.896Z,5.81
2018-12-25T11:44:02.779Z,5.65
2018-12-25T11:45:03.543Z,5.77
2018-12-25T11:46:03.399Z,5.12
2018-12-25T11:47:03.391Z,5.86
2018-12-25T11:48:03.121Z,6.55
2018-12-25T11:49:03.024Z,8.26
2018-12-25T11:50:02.918Z,5.56
2018-12-25T11:51:02.963Z,5.95
2018-12-25T11:52:02.820Z,5.43
2018-12-25T11:53:03.864Z,5.87
2018-12-25T11:54:03.333Z,5.71
2018-12-25T11:55:03.109Z,6.54
2018-12-25T11:56:03.082Z,5.28
2018-12-25T11:57:02.867Z,5.81
2018-12-25T11:58:03.001Z,5.42
2018-12-25T11:59:03.574Z,4.58
2018-12-25T12:00:03.104Z,5.78
2018-12-25T12:01:03.721Z,5.78
2018-12-25T12:02:03.377Z,6.14
2018-12-25T12:03:02.991Z,5.24
2018-12-25T12:04:03.311Z,5.24
2018-12-25T12:05:03.819Z,5.12
2018-12-25T12:06:03.339Z,5.01
2018-12-25T12:07:03.113Z,5.28
2018-12-25T12:08:03.169Z,5.77
2018-12-25T12:09:03.106Z,5.91
2018-12-25T12:10:03.537Z,5.11
2018-12-25T12:11:03.248Z,6.29
2018-12-25T12:12:03.419Z,7.19
2018-12-25T12:13:03.204Z,5.66
2018-12-25T12:14:03.110Z,5.83
2018-12-25T12:15:03.353Z,6.36
2018-12-25T12:16:03.732Z,4.81
2018-12-25T12:17:03.441Z,6.22
2018-12-25T12:18:03.655Z,6.19
2018-12-25T12:19:03.690Z,6.08
2018-12-25T12:20:03.339Z,7.2
2018-12-25T12:21:03.048Z,6.51
2018-12-25T12:22:03.169Z,5.86
2018-12-25T12:23:03.733Z,6.64
2018-12-25T12:24:02.915Z,5.97
2018-12-25T12:25:03.461Z,6.55
2018-12-25T12:26:03.523Z,5.88
2018-12-25T12:27:03.077Z,6.82
2018-12-25T12:28:03.368Z,5.75
2018-12-25T12:29:03.082Z,5.39
2018-12-25T12:30:03.585Z,5.35
2018-12-25T12:31:03.045Z,5.98
2018-12-25T12:32:03.323Z,5.06
2018-12-25T12:33:02.978Z,6.41
2018-12-25T12:34:03.055Z,6.08
2018-12-25T12:35:03.236Z,5.29
2018-12-25T12:36:02.875Z,6.35
2018-12-25T12:37:02.891Z,5.8
2018-12-25T12:38:03.847Z,5.61
2018-12-25T12:39:03.184Z,5.34
2018-12-25T12:40:03.989Z,5.56
2018-12-25T12:41:02.891Z,5.34
2018-12-25T12:42:03.234Z,5.57
2018-12-25T12:43:03.002Z,5.02
2018-12-25T12:44:03.555Z,4.74
2018-12-25T12:45:04.059Z,5.2
2018-12-25T12:46:03.581Z,6.44
2018-12-25T12:47:03.077Z,5.72
2018-12-25T12:48:03.503Z,5.94
2018-12-25T12:49:03.482Z,5.94
2018-12-25T12:50:03.192Z,4.97
2018-12-25T12:51:03.468Z,6.04
2018-12-25T12:52:03.068Z,6.04
2018-12-25T12:53:03.453Z,5.95
2018-12-25T12:54:03.654Z,5.71
2018-12-25T12:55:03.282Z,4.98
2018-12-25T12:56:03.085Z,5.49
2018-12-25T12:57:03.307Z,5.24
2018-12-25T12:58:03.130Z,5.39
2018-12-25T12:59:03.184Z,6.14
2018-12-25T13:00:02.960Z,6.19
2018-12-25T13:01:03.265Z,5.98
2018-12-25T13:02:03.516Z,6.42
2018-12-25T13:03:03.845Z,6.93
2018-12-25T13:04:03.497Z,7.23
2018-12-25T13:05:03.573Z,5.56
2018-12-25T13:06:03.580Z,6.74
2018-12-25T13:07:03.594Z,6.14
2018-12-25T13:08:03.036Z,5.19
2018-12-25T13:09:03.510Z,7.01
2018-12-25T13:10:03.186Z,8.12
2018-12-25T13:11:03.189Z,7.19
2018-12-25T13:12:03.412Z,5.38
2018-12-25T13:13:03.682Z,5.92
2018-12-25T13:14:03.273Z,5.94
2018-12-25T13:15:03.425Z,5.03
2018-12-25T13:16:02.837Z,6.02
2018-12-25T13:17:03.555Z,5.96
2018-12-25T13:18:03.179Z,5.74
2018-12-25T13:19:02.853Z,5.44
2018-12-25T13:20:03.175Z,5.91
2018-12-25T13:21:04.463Z,5.86
2018-12-25T13:22:03.366Z,6.32